createdAt,value
2018-05-29T00:00:33.775Z,18.90
2018-05-29T00:03:01.109Z,18.80
2018-05-29T00:05:28.497Z,18.80
2018-05-29T00:07:55.458Z,18.80
2018-05-29T00:10:22.082Z,18.90
2018-05-29T00:12:48.776Z,18.90
2018-05-29T00:15:15.401Z,18.90
2018-05-29T00:17:42.004Z,18.90
2018-05-29T00:20:08.564Z,18.90
2018-05-29T00:22:35.099Z,18.80
2018-05-29T00:25:01.768Z,18.80
2018-05-29T00:27:28.366Z,18.80
2018-05-29T00:29:54.967Z,18.70
2018-05-29T00:32:21.540Z,18.70
2018-05-29T00:34:48.270Z,18.60
2018-05-29T00:37:14.976Z,18.60
2018-05-29T00:39:42.289Z,18.50
2018-05-29T00:42:08.907Z,18.50
2018-05-29T00:44:35.468Z,18.50
2018-05-29T00:47:02.062Z,18.40
2018-05-29T00:49:28.645Z,18.40
2018-05-29T00:51:55.957Z,18.30
2018-05-29T00:54:22.557Z,18.30
2018-05-29T00:56:49.133Z,18.30
2018-05-29T00:59:15.823Z,18.30
2018-05-29T01:01:42.386Z,18.30
2018-05-29T01:04:09.683Z,18.30
2018-05-29T01:06:36.239Z,18.30
2018-05-29T01:09:02.891Z,18.30
2018-05-29T01:11:29.668Z,18.30
2018-05-29T01:13:56.284Z,18.20
2018-05-29T01:16:23.283Z,18.20
2018-05-29T01:18:50.648Z,18.20
2018-05-29T01:21:17.234Z,18.20
2018-05-29T01:23:44.294Z,18.10
2018-05-29T01:26:10.975Z,18.10
2018-05-29T01:28:37.507Z,18.10
2018-05-29T01:31:04.881Z,18.10
2018-05-29T01:33:31.395Z,18.00
2018-05-29T01:35:57.955Z,18.00
2018-05-29T01:38:25.320Z,18.00
2018-05-29T01:40:51.913Z,18.00
2018-05-29T01:43:18.454Z,17.90
2018-05-29T01:45:45.403Z,17.90
2018-05-29T01:48:12.753Z,17.80
2018-05-29T01:50:39.290Z,17.80
2018-05-29T01:53:05.862Z,17.80
2018-05-29T01:55:32.839Z,17.70
2018-05-29T01:57:59.385Z,17.70
2018-05-29T02:00:25.953Z,17.60
2018-05-29T02:02:53.302Z,17.60
2018-05-29T02:05:19.890Z,17.50
2018-05-29T02:07:46.482Z,17.50
2018-05-29T02:10:13.145Z,17.50
2018-05-29T02:12:39.804Z,17.40
2018-05-29T02:15:06.392Z,17.40
2018-05-29T02:17:33.056Z,17.40
2018-05-29T02:19:59.622Z,17.30
2018-05-29T02:22:26.709Z,17.30
2018-05-29T02:24:53.286Z,17.30
2018-05-29T02:27:19.930Z,17.30
2018-05-29T02:29:46.515Z,17.40
2018-05-29T02:32:13.129Z,17.20
2018-05-29T02:34:39.679Z,17.20
2018-05-29T02:37:06.217Z,17.20
2018-05-29T02:39:32.751Z,17.20
2018-05-29T02:41:59.358Z,17.20
2018-05-29T02:44:25.949Z,17.10
2018-05-29T02:46:52.676Z,17.10
2018-05-29T02:49:19.230Z,17.00
2018-05-29T02:51:46.568Z,17.00
2018-05-29T02:54:13.117Z,17.00
2018-05-29T02:56:40.466Z,17.00
2018-05-29T02:59:07.091Z,17.00
2018-05-29T03:01:33.760Z,17.00
2018-05-29T03:04:00.399Z,17.00
2018-05-29T03:06:27.767Z,17.00
2018-05-29T03:08:54.345Z,17.00
2018-05-29T03:11:20.955Z,17.00
2018-05-29T03:13:48.071Z,17.00
2018-05-29T03:16:14.657Z,16.90
2018-05-29T03:18:41.262Z,16.90
2018-05-29T03:21:07.855Z,16.90
2018-05-29T03:23:34.452Z,16.90
2018-05-29T03:26:01.121Z,16.90
2018-05-29T03:28:27.856Z,16.90
2018-05-29T03:30:54.405Z,16.90
2018-05-29T03:33:20.953Z,16.90
2018-05-29T03:35:48.261Z,16.90
2018-05-29T03:38:14.839Z,16.90
2018-05-29T03:40:41.439Z,16.90
2018-05-29T03:43:08.027Z,16.90
2018-05-29T03:45:35.321Z,17.00
2018-05-29T03:48:01.937Z,17.00
2018-05-29T03:50:28.493Z,17.00
2018-05-29T03:52:55.081Z,17.00
2018-05-29T03:55:22.428Z,17.10
2018-05-29T03:57:50.126Z,17.10
2018-05-29T04:00:16.677Z,17.10
2018-05-29T04:02:43.297Z,17.10
2018-05-29T04:05:09.876Z,17.20
2018-05-29T04:07:36.550Z,17.20
2018-05-29T04:10:03.171Z,17.30
2018-05-29T04:12:30.463Z,17.40
2018-05-29T04:14:57.769Z,17.40
2018-05-29T04:17:24.344Z,17.50
2018-05-29T04:19:51.309Z,17.50
2018-05-29T04:22:17.922Z,17.60
2018-05-29T04:24:45.187Z,17.80
2018-05-29T04:27:11.927Z,17.70
2018-05-29T04:29:38.457Z,17.90
2018-05-29T04:32:04.991Z,18.00
2018-05-29T04:34:31.686Z,18.20
2018-05-29T04:36:58.241Z,18.30
2018-05-29T04:39:24.831Z,18.40
2018-05-29T04:41:51.384Z,18.60
2018-05-29T04:44:18.035Z,18.80
2018-05-29T04:46:45.008Z,18.90
2018-05-29T04:49:12.441Z,19.10
2018-05-29T04:51:38.994Z,19.10
2018-05-29T04:54:07.037Z,19.40
2018-05-29T04:56:33.623Z,19.40
2018-05-29T04:59:00.213Z,19.60
2018-05-29T05:01:26.810Z,19.70
2018-05-29T05:03:53.355Z,19.80
2018-05-29T05:06:20.096Z,20.00
2018-05-29T05:08:46.666Z,20.10
2018-05-29T05:11:13.202Z,20.20
2018-05-29T05:13:40.004Z,20.40
2018-05-29T05:16:06.678Z,20.60
2018-05-29T05:18:33.228Z,20.90
2018-05-29T05:20:59.784Z,21.20
2018-05-29T05:23:26.315Z,21.50
2018-05-29T05:25:52.934Z,21.90
2018-05-29T05:28:19.482Z,22.20
2018-05-29T05:30:46.824Z,22.80
2018-05-29T05:33:13.483Z,22.80
2018-05-29T05:35:40.761Z,23.50
2018-05-29T05:38:07.501Z,23.50
2018-05-29T05:40:34.088Z,23.80
2018-05-29T05:43:00.624Z,24.20
2018-05-29T05:45:27.218Z,24.40
2018-05-29T05:47:53.751Z,24.60
2018-05-29T05:50:20.686Z,24.90
2018-05-29T05:52:47.268Z,25.10
2018-05-29T05:55:13.809Z,25.50
2018-05-29T05:57:40.394Z,25.90
2018-05-29T06:00:06.999Z,26.20
2018-05-29T06:02:34.812Z,26.50
2018-05-29T06:05:01.363Z,26.40
2018-05-29T06:07:29.552Z,26.80
2018-05-29T06:09:56.729Z,26.80
2018-05-29T06:12:24.026Z,27.10
2018-05-29T06:14:50.569Z,27.10
2018-05-29T06:17:17.132Z,27.10
2018-05-29T06:19:45.163Z,27.30
2018-05-29T06:22:11.775Z,27.30
2018-05-29T06:24:39.070Z,27.60
2018-05-29T06:27:05.682Z,27.60
2018-05-29T06:29:32.249Z,27.60
2018-05-29T06:31:59.248Z,27.70
2018-05-29T06:34:25.783Z,27.90
2018-05-29T06:36:52.379Z,27.90
2018-05-29T06:39:18.966Z,28.10
2018-05-29T06:41:45.578Z,28.20
2018-05-29T06:44:12.916Z,28.40
2018-05-29T06:46:40.241Z,28.20
2018-05-29T06:49:06.852Z,28.20
2018-05-29T06:51:33.426Z,28.30
2018-05-29T06:54:00.207Z,28.60
2018-05-29T06:56:27.501Z,28.60
2018-05-29T06:58:54.026Z,28.60
2018-05-29T07:01:20.609Z,28.50
2018-05-29T07:03:47.143Z,28.70
2018-05-29T07:06:13.699Z,28.90
2018-05-29T07:08:41.165Z,29.20
2018-05-29T07:11:08.213Z,29.20
2018-05-29T07:13:34.764Z,29.10
2018-05-29T07:16:01.445Z,29.00
2018-05-29T07:18:28.006Z,29.10
2018-05-29T07:20:55.315Z,29.50
2018-05-29T07:23:21.902Z,29.40
2018-05-29T07:25:49.163Z,29.70
2018-05-29T07:28:15.747Z,29.70
2018-05-29T07:30:42.276Z,29.60
2018-05-29T07:33:09.094Z,29.70
2018-05-29T07:35:35.665Z,29.70
2018-05-29T07:38:02.260Z,30.10
2018-05-29T07:40:28.839Z,30.50
2018-05-29T07:42:56.903Z,30.60
2018-05-29T07:45:23.475Z,30.60
2018-05-29T07:47:50.780Z,30.70
2018-05-29T07:50:17.368Z,30.60
2018-05-29T07:52:43.907Z,30.80
2018-05-29T07:55:11.225Z,30.80
2018-05-29T07:57:38.385Z,30.80
2018-05-29T08:00:04.923Z,30.90
2018-05-29T08:02:31.487Z,30.80
2018-05-29T08:04:58.834Z,30.90
2018-05-29T08:07:26.124Z,30.80
2018-05-29T08:09:52.717Z,30.80
2018-05-29T08:12:19.332Z,31.00
2018-05-29T08:14:46.100Z,31.30
2018-05-29T08:17:13.557Z,31.00
2018-05-29T08:19:41.314Z,31.00
2018-05-29T08:22:08.627Z,31.00
2018-05-29T08:24:35.328Z,31.00
2018-05-29T08:27:01.907Z,31.10
2018-05-29T08:29:28.473Z,31.00
2018-05-29T08:31:55.782Z,31.30
2018-05-29T08:34:22.379Z,31.30
2018-05-29T08:36:50.190Z,31.80
2018-05-29T08:39:16.903Z,31.90
2018-05-29T08:41:43.427Z,32.10
2018-05-29T08:44:10.725Z,32.20
2018-05-29T08:46:37.279Z,32.10
2018-05-29T08:49:03.848Z,32.10
2018-05-29T08:51:30.470Z,32.30
2018-05-29T08:53:57.799Z,32.20
2018-05-29T08:56:24.398Z,32.10
2018-05-29T08:58:51.005Z,32.00
2018-05-29T09:01:18.041Z,32.20
2018-05-29T09:03:45.338Z,32.40
2018-05-29T09:06:11.912Z,32.40
2018-05-29T09:08:38.638Z,32.20
2018-05-29T09:11:06.469Z,32.20
2018-05-29T09:13:33.029Z,32.20
2018-05-29T09:15:59.589Z,32.10
2018-05-29T09:18:26.173Z,32.10
2018-05-29T09:20:52.750Z,32.10
2018-05-29T09:23:19.757Z,32.20
2018-05-29T09:25:46.348Z,32.30
2018-05-29T09:28:13.638Z,32.10
2018-05-29T09:30:40.240Z,32.10
2018-05-29T09:33:07.205Z,32.20
2018-05-29T09:35:33.817Z,32.20
2018-05-29T09:38:00.331Z,32.30
2018-05-29T09:40:27.015Z,32.30
2018-05-29T09:42:54.315Z,32.40
2018-05-29T09:45:21.228Z,32.40
2018-05-29T09:47:47.710Z,32.40
2018-05-29T09:50:14.268Z,32.40
2018-05-29T09:52:40.876Z,32.30
2018-05-29T09:55:07.588Z,32.00
2018-05-29T09:57:34.403Z,32.00
2018-05-29T10:00:01.842Z,32.20
2018-05-29T10:02:29.167Z,32.30
2018-05-29T10:04:55.799Z,32.30
2018-05-29T10:07:22.376Z,32.40
2018-05-29T10:09:48.927Z,32.60
2018-05-29T10:12:16.300Z,32.40
2018-05-29T10:14:42.859Z,32.40
2018-05-29T10:17:09.425Z,32.60
2018-05-29T10:19:36.772Z,32.60
2018-05-29T10:22:03.337Z,32.60
2018-05-29T10:24:31.031Z,32.80
2018-05-29T10:26:57.590Z,32.80
2018-05-29T10:29:24.154Z,32.80
2018-05-29T10:31:50.701Z,32.70
2018-05-29T10:34:17.286Z,32.60
2018-05-29T10:36:43.857Z,32.70
2018-05-29T10:39:10.499Z,33.00
2018-05-29T10:41:37.807Z,32.90
2018-05-29T10:44:04.391Z,32.90
2018-05-29T10:46:31.368Z,32.70
2018-05-29T10:48:57.930Z,32.80
2018-05-29T10:51:24.490Z,32.80
2018-05-29T10:53:51.056Z,32.90
2018-05-29T10:56:18.412Z,33.20
2018-05-29T10:58:45.879Z,33.20
2018-05-29T11:01:12.506Z,33.20
2018-05-29T11:03:39.861Z,32.60
2018-05-29T11:06:06.514Z,32.60
2018-05-29T11:08:33.102Z,32.70
2018-05-29T11:10:59.739Z,33.00
2018-05-29T11:13:26.307Z,33.30
2018-05-29T11:15:53.725Z,33.40
2018-05-29T11:18:21.066Z,33.50
2018-05-29T11:20:48.529Z,33.60
2018-05-29T11:23:15.212Z,33.60
2018-05-29T11:25:41.849Z,33.60
2018-05-29T11:28:08.473Z,33.60
2018-05-29T11:30:35.126Z,33.60
2018-05-29T11:33:02.467Z,33.20
2018-05-29T11:35:29.742Z,33.20
2018-05-29T11:37:56.313Z,33.20
2018-05-29T11:40:22.878Z,33.00
2018-05-29T11:42:49.478Z,33.20
2018-05-29T11:45:16.074Z,33.10
2018-05-29T11:47:43.350Z,33.30
2018-05-29T11:50:09.923Z,33.20
2018-05-29T11:52:36.421Z,33.40
2018-05-29T11:55:03.085Z,33.60
2018-05-29T11:57:29.619Z,33.60
2018-05-29T11:59:56.201Z,33.60
2018-05-29T12:02:23.512Z,33.10
2018-05-29T12:04:50.784Z,33.20
2018-05-29T12:07:17.350Z,33.10
2018-05-29T12:09:43.939Z,33.00
2018-05-29T12:12:23.462Z,32.90
2018-05-29T12:14:50.027Z,32.90
2018-05-29T12:17:17.307Z,33.00
2018-05-29T12:19:43.809Z,33.00
2018-05-29T12:22:10.448Z,32.90
2018-05-29T12:24:37.009Z,33.10
2018-05-29T12:27:03.577Z,33.20
2018-05-29T12:29:30.155Z,33.20
2018-05-29T12:31:56.727Z,33.40
2018-05-29T12:34:24.104Z,33.10
2018-05-29T12:36:51.397Z,33.00
2018-05-29T12:39:17.957Z,33.00
2018-05-29T12:41:45.278Z,33.00
2018-05-29T12:44:11.868Z,33.00
2018-05-29T12:46:38.447Z,33.10
2018-05-29T12:49:05.881Z,33.20
2018-05-29T12:51:32.475Z,33.20
2018-05-29T12:53:58.974Z,33.30
2018-05-29T12:56:26.207Z,33.30
2018-05-29T12:58:52.793Z,33.30
2018-05-29T13:01:20.193Z,33.30
2018-05-29T13:03:46.675Z,33.30
2018-05-29T13:06:13.161Z,33.50
2018-05-29T13:08:39.863Z,33.70
2018-05-29T13:11:06.416Z,33.60
2018-05-29T13:13:32.944Z,33.30
2018-05-29T13:15:59.927Z,33.10
2018-05-29T13:18:26.429Z,33.10
2018-05-29T13:20:52.950Z,33.10
2018-05-29T13:23:19.834Z,33.20
2018-05-29T13:25:46.406Z,33.10
2018-05-29T13:28:12.917Z,33.30
2018-05-29T13:30:40.179Z,33.50
2018-05-29T13:33:07.445Z,33.50
2018-05-29T13:35:33.997Z,33.50
2018-05-29T13:38:00.479Z,33.60
2018-05-29T13:40:26.983Z,33.40
2018-05-29T13:42:53.523Z,33.40
2018-05-29T13:45:20.031Z,33.50
2018-05-29T13:47:46.732Z,33.50
2018-05-29T13:50:13.211Z,33.50
2018-05-29T13:52:39.717Z,33.40
2018-05-29T13:55:07.057Z,33.50
2018-05-29T13:57:34.287Z,33.60
2018-05-29T14:00:00.817Z,33.60
2018-05-29T14:02:27.339Z,33.70
2018-05-29T14:04:53.858Z,33.80
2018-05-29T14:07:20.841Z,33.90
2018-05-29T14:09:47.389Z,33.80
2018-05-29T14:12:13.899Z,33.60
2018-05-29T14:14:40.463Z,33.40
2018-05-29T14:17:07.094Z,33.40
2018-05-29T14:19:34.134Z,33.20
2018-05-29T14:22:00.629Z,33.10
2018-05-29T14:24:27.181Z,33.20
2018-05-29T14:26:53.714Z,33.30
2018-05-29T14:29:20.222Z,33.20
2018-05-29T14:31:46.753Z,33.20
2018-05-29T14:34:13.230Z,33.10
2018-05-29T14:36:39.834Z,33.20
2018-05-29T14:39:06.347Z,33.10
2018-05-29T14:41:33.584Z,33.20
2018-05-29T14:44:00.156Z,33.20
2018-05-29T14:46:27.117Z,33.20
2018-05-29T14:48:53.613Z,33.40
2018-05-29T14:51:20.829Z,33.60
2018-05-29T14:53:47.337Z,33.60
2018-05-29T14:56:13.834Z,33.60
2018-05-29T14:58:41.164Z,33.40
2018-05-29T15:01:07.654Z,33.40
2018-05-29T15:03:34.199Z,33.40
2018-05-29T15:06:00.695Z,33.20
2018-05-29T15:08:27.200Z,33.10
2018-05-29T15:10:53.705Z,33.20
2018-05-29T15:13:20.269Z,33.20
2018-05-29T15:15:46.817Z,33.20
2018-05-29T15:18:14.036Z,33.00
2018-05-29T15:20:41.099Z,33.00
2018-05-29T15:23:07.602Z,32.80
2018-05-29T15:25:34.101Z,32.40
2018-05-29T15:28:00.643Z,32.50
2018-05-29T15:30:27.163Z,32.20
2018-05-29T15:32:54.898Z,31.80
2018-05-29T15:35:21.408Z,31.70
2018-05-29T15:37:47.910Z,31.40
2018-05-29T15:40:14.573Z,31.40
2018-05-29T15:42:41.120Z,31.30
2018-05-29T15:45:07.638Z,31.10
2018-05-29T15:47:34.150Z,31.10
2018-05-29T15:50:00.677Z,31.00
2018-05-29T15:52:27.192Z,30.90
2018-05-29T15:54:54.492Z,31.00
2018-05-29T15:57:20.973Z,31.00
2018-05-29T15:59:47.485Z,30.90
2018-05-29T16:02:13.973Z,30.90
2018-05-29T16:04:41.263Z,30.90
2018-05-29T16:07:07.748Z,30.80
2018-05-29T16:09:35.052Z,30.60
2018-05-29T16:12:01.623Z,30.60
2018-05-29T16:14:28.150Z,30.60
2018-05-29T16:16:54.756Z,30.50
2018-05-29T16:19:21.256Z,30.50
2018-05-29T16:21:47.788Z,30.50
2018-05-29T16:24:15.040Z,30.50
2018-05-29T16:26:41.548Z,30.50
2018-05-29T16:29:08.848Z,30.50
2018-05-29T16:31:35.386Z,30.50
2018-05-29T16:34:02.017Z,30.50
2018-05-29T16:36:28.577Z,30.50
2018-05-29T16:38:55.106Z,30.50
2018-05-29T16:41:21.627Z,30.30
2018-05-29T16:43:48.145Z,30.20
2018-05-29T16:46:14.642Z,30.20
2018-05-29T16:48:41.166Z,30.10
2018-05-29T16:51:07.682Z,30.00
2018-05-29T16:53:34.183Z,29.90
2018-05-29T16:56:00.709Z,29.80
2018-05-29T16:58:27.968Z,29.50
2018-05-29T17:00:55.230Z,29.40
2018-05-29T17:03:21.711Z,29.40
2018-05-29T17:05:48.242Z,29.30
2018-05-29T17:08:14.746Z,29.20
2018-05-29T17:10:41.620Z,29.10
2018-05-29T17:13:08.194Z,29.00
2018-05-29T17:15:35.442Z,28.90
2018-05-29T17:18:02.738Z,28.70
2018-05-29T17:20:29.225Z,28.70
2018-05-29T17:22:56.490Z,28.60
2018-05-29T17:25:22.969Z,28.60
2018-05-29T17:27:49.483Z,28.50
2018-05-29T17:30:16.366Z,28.50
2018-05-29T17:32:42.854Z,28.40
2018-05-29T17:35:09.363Z,28.40
2018-05-29T17:37:36.612Z,28.30
2018-05-29T17:40:03.855Z,28.30
2018-05-29T17:42:30.339Z,28.30
2018-05-29T17:44:56.905Z,28.20
2018-05-29T17:47:23.415Z,28.20
2018-05-29T17:49:49.902Z,28.10
2018-05-29T17:52:17.163Z,27.90
2018-05-29T17:54:43.805Z,27.90
2018-05-29T17:57:11.037Z,27.70
2018-05-29T17:59:37.554Z,27.70
2018-05-29T18:02:05.601Z,27.50
2018-05-29T18:04:32.578Z,27.50
2018-05-29T18:06:59.068Z,27.50
2018-05-29T18:09:25.640Z,27.40
2018-05-29T18:11:52.811Z,27.20
2018-05-29T18:14:19.328Z,27.20
2018-05-29T18:16:47.333Z,27.00
2018-05-29T18:19:13.844Z,27.00
2018-05-29T18:21:40.784Z,27.00
2018-05-29T18:24:07.300Z,26.90
2018-05-29T18:26:33.805Z,26.70
2018-05-29T18:29:00.482Z,26.70
2018-05-29T18:31:26.984Z,26.60
2018-05-29T18:33:53.516Z,26.40
2018-05-29T18:36:20.115Z,26.30
2018-05-29T18:38:46.624Z,26.10
2018-05-29T18:41:15.796Z,25.80
2018-05-29T18:43:42.303Z,25.80
2018-05-29T18:46:08.839Z,25.80
2018-05-29T18:48:35.410Z,25.70
2018-05-29T18:51:01.930Z,25.50
2018-05-29T18:53:28.412Z,25.20
2018-05-29T18:55:55.693Z,24.80
2018-05-29T18:58:22.209Z,24.70
2018-05-29T19:00:49.448Z,24.40
2018-05-29T19:03:16.757Z,24.30
2018-05-29T19:05:43.245Z,24.30
2018-05-29T19:08:10.485Z,24.10
2018-05-29T19:10:37.801Z,24.00
2018-05-29T19:13:04.424Z,23.90
2018-05-29T19:15:30.966Z,23.90
2018-05-29T19:17:57.430Z,23.70
2018-05-29T19:20:23.985Z,23.60
2018-05-29T19:22:50.538Z,23.50
2018-05-29T19:25:16.999Z,23.40
2018-05-29T19:27:43.528Z,23.20
2018-05-29T19:30:10.049Z,23.10
2018-05-29T19:32:36.608Z,23.10
2018-05-29T19:35:03.144Z,23.00
2018-05-29T19:37:29.759Z,22.90
2018-05-29T19:39:56.263Z,22.80
2018-05-29T19:42:23.502Z,22.70
2018-05-29T19:44:50.869Z,22.50
2018-05-29T19:47:17.361Z,22.50
2018-05-29T19:49:44.002Z,22.50
2018-05-29T19:52:10.525Z,22.40
2018-05-29T19:54:37.208Z,22.40
2018-05-29T19:57:03.701Z,22.30
2018-05-29T19:59:30.251Z,22.30
2018-05-29T20:01:56.744Z,22.20
2018-05-29T20:04:23.282Z,22.10
2018-05-29T20:06:49.830Z,22.10
2018-05-29T20:09:17.206Z,22.00
2018-05-29T20:11:43.769Z,22.00
2018-05-29T20:14:10.299Z,21.90
2018-05-29T20:16:38.311Z,21.90
2018-05-29T20:19:05.208Z,21.90
2018-05-29T20:21:31.842Z,21.90
2018-05-29T20:23:58.326Z,21.90
2018-05-29T20:26:24.961Z,21.90
2018-05-29T20:28:51.461Z,21.80
2018-05-29T20:31:18.055Z,21.80
2018-05-29T20:33:44.594Z,21.80
2018-05-29T20:36:12.380Z,21.80
2018-05-29T20:38:38.863Z,21.70
2018-05-29T20:41:06.190Z,21.60
2018-05-29T20:43:33.235Z,21.60
2018-05-29T20:45:59.783Z,21.60
2018-05-29T20:48:27.022Z,21.60
2018-05-29T20:50:53.627Z,21.60
2018-05-29T20:53:20.134Z,21.60
2018-05-29T20:55:46.652Z,21.60
2018-05-29T20:58:13.871Z,21.60
2018-05-29T21:00:40.817Z,21.60
2018-05-29T21:03:07.320Z,21.60
2018-05-29T21:05:33.810Z,21.60
2018-05-29T21:08:01.434Z,21.60
2018-05-29T21:10:27.931Z,21.60
2018-05-29T21:12:54.424Z,21.70
2018-05-29T21:15:20.965Z,21.70
2018-05-29T21:17:48.199Z,21.70
2018-05-29T21:20:14.738Z,21.70
2018-05-29T21:22:41.452Z,21.70
2018-05-29T21:25:07.959Z,21.60
2018-05-29T21:27:34.853Z,21.50
2018-05-29T21:30:01.354Z,21.40
2018-05-29T21:32:27.840Z,21.20
2018-05-29T21:34:55.252Z,20.70
2018-05-29T21:37:21.769Z,20.60
2018-05-29T21:39:48.289Z,20.20
2018-05-29T21:42:14.804Z,19.70
2018-05-29T21:44:42.037Z,19.20
2018-05-29T21:47:08.647Z,19.10
2018-05-29T21:49:35.124Z,19.00
2018-05-29T21:52:02.869Z,18.90
2018-05-29T21:54:29.481Z,18.80
2018-05-29T21:56:55.974Z,18.80
2018-05-29T21:59:22.531Z,18.70
2018-05-29T22:01:49.829Z,18.60
2018-05-29T22:04:16.306Z,18.60
2018-05-29T22:06:42.820Z,18.50
2018-05-29T22:09:10.196Z,18.40
2018-05-29T22:11:36.761Z,18.40
2018-05-29T22:14:03.630Z,18.40
2018-05-29T22:16:30.240Z,18.40
2018-05-29T22:18:56.724Z,18.40
2018-05-29T22:21:23.979Z,18.40
2018-05-29T22:23:51.277Z,18.40
2018-05-29T22:26:18.146Z,18.40
2018-05-29T22:28:44.662Z,19.90
2018-05-29T22:31:11.269Z,18.50
2018-05-29T22:33:37.793Z,18.50
2018-05-29T22:36:04.468Z,18.50
2018-05-29T22:38:31.209Z,18.50
2018-05-29T22:40:57.845Z,18.60
2018-05-29T22:43:24.358Z,18.60
2018-05-29T22:45:50.846Z,18.60
2018-05-29T22:48:17.377Z,18.70
2018-05-29T22:50:43.920Z,18.70
2018-05-29T22:53:11.187Z,18.70
2018-05-29T22:55:37.751Z,18.60
2018-05-29T22:58:04.288Z,18.70
2018-05-29T23:00:30.812Z,18.70
2018-05-29T23:02:58.301Z,18.60
2018-05-29T23:05:24.918Z,18.60
2018-05-29T23:07:51.470Z,18.60
2018-05-29T23:10:18.067Z,18.60
2018-05-29T23:12:44.754Z,18.60
2018-05-29T23:15:11.704Z,18.60
2018-05-29T23:17:38.305Z,18.60
2018-05-29T23:20:04.861Z,18.60
2018-05-29T23:22:31.451Z,18.70
2018-05-29T23:24:58.010Z,18.70
2018-05-29T23:27:24.885Z,18.80
2018-05-29T23:29:52.171Z,18.80
2018-05-29T23:32:18.695Z,18.80
2018-05-29T23:34:45.655Z,18.80
2018-05-29T23:37:12.183Z,18.90
2018-05-29T23:39:38.723Z,18.90
2018-05-29T23:42:05.422Z,18.90
2018-05-29T23:44:32.882Z,18.90
2018-05-29T23:47:00.176Z,18.80
2018-05-29T23:49:26.746Z,18.90
2018-05-29T23:51:53.338Z,18.80
2018-05-29T23:54:19.885Z,18.80
2018-05-29T23:56:46.453Z,18.80
2018-05-29T23:59:12.992Z,18.80
